sensor_id;sensor_type;location;lat;lon;timestamp;P1;durP1;ratioP1;P2;durP2;ratioP2
45476;SDS011;31958;51.756;-2.556;2023-03-16T00:00:02;22.65;;;6.18;;
45476;SDS011;31958;51.756;-2.556;2023-03-16T00:02:29;16.83;;;5.00;;
45476;SDS011;31958;51.756;-2.556;2023-03-16T00:04:54;14.50;;;5.22;;
45476;SDS011;31958;51.756;-2.556;2023-03-16T00:07:20;17.63;;;3.35;;
45476;SDS011;31958;51.756;-2.556;2023-03-16T00:09:45;7.80;;;3.45;;
45476;SDS011;31958;51.756;-2.556;2023-03-16T00:12:12;13.15;;;4.30;;
45476;SDS011;31958;51.756;-2.556;2023-03-16T00:14:40;11.10;;;2.38;;
45476;SDS011;31958;51.756;-2.556;2023-03-16T00:17:08;12.68;;;4.57;;
45476;SDS011;31958;51.756;-2.556;2023-03-16T00:19:47;18.95;;;4.50;;
45476;SDS011;31958;51.756;-2.556;2023-03-16T00:22:19;7.30;;;3.13;;
45476;SDS011;31958;51.756;-2.556;2023-03-16T00:24:45;5.38;;;1.92;;
45476;SDS011;31958;51.756;-2.556;2023-03-16T00:27:11;12.85;;;3.17;;
45476;SDS011;31958;51.756;-2.556;2023-03-16T00:29:43;11.23;;;2.35;;
45476;SDS011;31958;51.756;-2.556;2023-03-16T00:32:11;9.02;;;2.55;;
45476;SDS011;31958;51.756;-2.556;2023-03-16T00:34:38;6.28;;;2.58;;
45476;SDS011;31958;51.756;-2.556;2023-03-16T00:37:03;15.05;;;2.85;;
45476;SDS011;31958;51.756;-2.556;2023-03-16T00:39:29;15.40;;;3.42;;
45476;SDS011;31958;51.756;-2.556;2023-03-16T00:41:54;15.15;;;2.17;;
45476;SDS011;31958;51.756;-2.556;2023-03-16T00:44:22;8.95;;;2.10;;
45476;SDS011;31958;51.756;-2.556;2023-03-16T00:46:48;5.18;;;1.95;;
45476;SDS011;31958;51.756;-2.556;2023-03-16T00:49:13;6.05;;;1.77;;
45476;SDS011;31958;51.756;-2.556;2023-03-16T00:51:38;7.55;;;2.22;;
45476;SDS011;31958;51.756;-2.556;2023-03-16T00:54:04;16.45;;;2.30;;
45476;SDS011;31958;51.756;-2.556;2023-03-16T00:56:29;13.80;;;2.00;;
45476;SDS011;31958;51.756;-2.556;2023-03-16T00:58:55;15.45;;;2.40;;
45476;SDS011;31958;51.756;-2.556;2023-03-16T01:01:21;5.60;;;1.70;;
45476;SDS011;31958;51.756;-2.556;2023-03-16T01:03:47;14.02;;;2.40;;
45476;SDS011;31958;51.756;-2.556;2023-03-16T01:06:14;5.90;;;1.42;;
45476;SDS011;31958;51.756;-2.556;2023-03-16T01:08:41;8.90;;;2.10;;
45476;SDS011;31958;51.756;-2.556;2023-03-16T01:11:17;7.55;;;2.28;;
45476;SDS011;31958;51.756;-2.556;2023-03-16T01:13:43;13.48;;;1.85;;
45476;SDS011;31958;51.756;-2.556;2023-03-16T01:16:11;6.72;;;2.00;;
45476;SDS011;31958;51.756;-2.556;2023-03-16T01:18:37;6.10;;;1.45;;
45476;SDS011;31958;51.756;-2.556;2023-03-16T01:21:04;13.73;;;2.22;;
45476;SDS011;31958;51.756;-2.556;2023-03-16T01:23:30;12.35;;;1.70;;
45476;SDS011;31958;51.756;-2.556;2023-03-16T01:25:57;9.63;;;1.95;;
45476;SDS011;31958;51.756;-2.556;2023-03-16T01:28:23;10.32;;;1.95;;
45476;SDS011;31958;51.756;-2.556;2023-03-16T01:30:51;15.85;;;1.77;;
45476;SDS011;31958;51.756;-2.556;2023-03-16T01:33:21;13.48;;;2.13;;
45476;SDS011;31958;51.756;-2.556;2023-03-16T01:38:33;15.98;;;2.22;;
45476;SDS011;31958;51.756;-2.556;2023-03-16T01:40:59;16.48;;;2.20;;
45476;SDS011;31958;51.756;-2.556;2023-03-16T01:43:25;12.00;;;2.35;;
45476;SDS011;31958;51.756;-2.556;2023-03-16T01:46:37;11.25;;;1.40;;
45476;SDS011;31958;51.756;-2.556;2023-03-16T01:51:27;15.30;;;1.83;;
45476;SDS011;31958;51.756;-2.556;2023-03-16T01:53:57;7.88;;;1.75;;
45476;SDS011;31958;51.756;-2.556;2023-03-16T01:56:26;18.00;;;2.72;;
45476;SDS011;31958;51.756;-2.556;2023-03-16T01:58:58;20.15;;;2.90;;
45476;SDS011;31958;51.756;-2.556;2023-03-16T02:01:26;9.50;;;2.38;;
45476;SDS011;31958;51.756;-2.556;2023-03-16T02:03:54;11.65;;;2.55;;
45476;SDS011;31958;51.756;-2.556;2023-03-16T02:06:24;7.38;;;2.40;;
45476;SDS011;31958;51.756;-2.556;2023-03-16T02:08:49;11.93;;;2.15;;
45476;SDS011;31958;51.756;-2.556;2023-03-16T02:11:19;15.10;;;1.77;;
45476;SDS011;31958;51.756;-2.556;2023-03-16T02:13:46;17.05;;;2.38;;
45476;SDS011;31958;51.756;-2.556;2023-03-16T02:16:12;18.77;;;2.58;;
45476;SDS011;31958;51.756;-2.556;2023-03-16T02:18:43;11.85;;;2.28;;
45476;SDS011;31958;51.756;-2.556;2023-03-16T02:23:45;13.40;;;2.22;;
45476;SDS011;31958;51.756;-2.556;2023-03-16T02:26:14;15.65;;;2.70;;
45476;SDS011;31958;51.756;-2.556;2023-03-16T02:33:51;10.50;;;2.38;;
45476;SDS011;31958;51.756;-2.556;2023-03-16T02:36:17;15.82;;;1.83;;
45476;SDS011;31958;51.756;-2.556;2023-03-16T02:38:44;11.43;;;1.77;;
45476;SDS011;31958;51.756;-2.556;2023-03-16T02:41:11;20.40;;;2.20;;
45476;SDS011;31958;51.756;-2.556;2023-03-16T02:43:39;12.25;;;1.65;;
45476;SDS011;31958;51.756;-2.556;2023-03-16T02:46:06;12.73;;;1.50;;
45476;SDS011;31958;51.756;-2.556;2023-03-16T02:48:46;12.82;;;2.67;;
45476;SDS011;31958;51.756;-2.556;2023-03-16T02:51:15;11.13;;;1.80;;
45476;SDS011;31958;51.756;-2.556;2023-03-16T02:53:40;14.50;;;1.83;;
45476;SDS011;31958;51.756;-2.556;2023-03-16T02:56:06;5.95;;;1.33;;
45476;SDS011;31958;51.756;-2.556;2023-03-16T02:58:31;11.60;;;1.90;;
45476;SDS011;31958;51.756;-2.556;2023-03-16T03:00:57;12.05;;;1.48;;
45476;SDS011;31958;51.756;-2.556;2023-03-16T03:03:23;10.93;;;1.60;;
45476;SDS011;31958;51.756;-2.556;2023-03-16T03:05:48;8.23;;;1.40;;
45476;SDS011;31958;51.756;-2.556;2023-03-16T03:08:14;10.73;;;1.90;;
45476;SDS011;31958;51.756;-2.556;2023-03-16T03:10:39;14.73;;;2.28;;
45476;SDS011;31958;51.756;-2.556;2023-03-16T03:13:05;18.58;;;1.80;;
45476;SDS011;31958;51.756;-2.556;2023-03-16T03:15:31;8.57;;;1.95;;
45476;SDS011;31958;51.756;-2.556;2023-03-16T03:17:57;13.90;;;1.25;;
45476;SDS011;31958;51.756;-2.556;2023-03-16T03:20:23;11.35;;;1.88;;
45476;SDS011;31958;51.756;-2.556;2023-03-16T03:22:48;10.48;;;1.65;;
45476;SDS011;31958;51.756;-2.556;2023-03-16T03:25:17;7.90;;;1.60;;
45476;SDS011;31958;51.756;-2.556;2023-03-16T03:27:43;7.45;;;1.50;;
45476;SDS011;31958;51.756;-2.556;2023-03-16T03:30:09;9.77;;;1.55;;
45476;SDS011;31958;51.756;-2.556;2023-03-16T03:32:37;13.02;;;2.10;;
45476;SDS011;31958;51.756;-2.556;2023-03-16T03:35:03;9.80;;;1.77;;
45476;SDS011;31958;51.756;-2.556;2023-03-16T03:37:29;15.48;;;1.75;;
45476;SDS011;31958;51.756;-2.556;2023-03-16T03:39:55;14.85;;;1.83;;
45476;SDS011;31958;51.756;-2.556;2023-03-16T03:42:20;11.90;;;1.73;;
45476;SDS011;31958;51.756;-2.556;2023-03-16T03:44:48;13.05;;;2.20;;
45476;SDS011;31958;51.756;-2.556;2023-03-16T03:47:15;11.10;;;2.15;;
45476;SDS011;31958;51.756;-2.556;2023-03-16T03:49:40;9.25;;;1.88;;
45476;SDS011;31958;51.756;-2.556;2023-03-16T03:52:06;8.13;;;1.73;;
45476;SDS011;31958;51.756;-2.556;2023-03-16T03:54:31;10.05;;;2.22;;
45476;SDS011;31958;51.756;-2.556;2023-03-16T03:56:57;16.45;;;2.05;;
45476;SDS011;31958;51.756;-2.556;2023-03-16T03:59:22;16.95;;;1.67;;
45476;SDS011;31958;51.756;-2.556;2023-03-16T04:01:48;19.52;;;2.13;;
45476;SDS011;31958;51.756;-2.556;2023-03-16T04:04:13;11.65;;;1.90;;
45476;SDS011;31958;51.756;-2.556;2023-03-16T04:06:39;7.63;;;1.83;;
45476;SDS011;31958;51.756;-2.556;2023-03-16T04:09:06;12.57;;;1.52;;
45476;SDS011;31958;51.756;-2.556;2023-03-16T04:11:32;13.55;;;1.63;;
45476;SDS011;31958;51.756;-2.556;2023-03-16T04:13:57;11.70;;;1.70;;
45476;SDS011;31958;51.756;-2.556;2023-03-16T04:16:22;11.68;;;1.85;;
45476;SDS011;31958;51.756;-2.556;2023-03-16T04:18:51;24.40;;;2.65;;
45476;SDS011;31958;51.756;-2.556;2023-03-16T04:21:18;12.40;;;2.25;;
45476;SDS011;31958;51.756;-2.556;2023-03-16T04:23:44;14.55;;;2.10;;
45476;SDS011;31958;51.756;-2.556;2023-03-16T04:26:10;12.13;;;2.13;;
45476;SDS011;31958;51.756;-2.556;2023-03-16T04:28:35;8.27;;;2.10;;
45476;SDS011;31958;51.756;-2.556;2023-03-16T04:31:05;9.63;;;2.13;;
45476;SDS011;31958;51.756;-2.556;2023-03-16T04:33:35;15.82;;;1.70;;
45476;SDS011;31958;51.756;-2.556;2023-03-16T04:36:01;7.55;;;1.58;;
45476;SDS011;31958;51.756;-2.556;2023-03-16T04:38:28;12.77;;;1.88;;
45476;SDS011;31958;51.756;-2.556;2023-03-16T04:40:54;9.82;;;1.52;;
45476;SDS011;31958;51.756;-2.556;2023-03-16T04:43:19;7.25;;;1.80;;
45476;SDS011;31958;51.756;-2.556;2023-03-16T04:45:45;8.85;;;1.70;;
45476;SDS011;31958;51.756;-2.556;2023-03-16T04:48:10;7.32;;;1.40;;
45476;SDS011;31958;51.756;-2.556;2023-03-16T04:50:36;6.53;;;1.30;;
45476;SDS011;31958;51.756;-2.556;2023-03-16T04:53:01;8.82;;;1.98;;
45476;SDS011;31958;51.756;-2.556;2023-03-16T04:55:28;7.85;;;1.50;;
45476;SDS011;31958;51.756;-2.556;2023-03-16T04:57:55;7.68;;;1.63;;
45476;SDS011;31958;51.756;-2.556;2023-03-16T05:00:20;5.05;;;1.50;;
45476;SDS011;31958;51.756;-2.556;2023-03-16T05:02:47;5.00;;;1.30;;
45476;SDS011;31958;51.756;-2.556;2023-03-16T05:05:14;7.32;;;1.50;;
45476;SDS011;31958;51.756;-2.556;2023-03-16T05:07:40;14.02;;;1.95;;
45476;SDS011;31958;51.756;-2.556;2023-03-16T05:10:08;8.18;;;1.52;;
45476;SDS011;31958;51.756;-2.556;2023-03-16T05:12:35;5.68;;;1.40;;
45476;SDS011;31958;51.756;-2.556;2023-03-16T05:15:00;7.10;;;1.55;;
45476;SDS011;31958;51.756;-2.556;2023-03-16T05:17:26;8.02;;;1.60;;
45476;SDS011;31958;51.756;-2.556;2023-03-16T05:19:52;11.68;;;2.10;;
45476;SDS011;31958;51.756;-2.556;2023-03-16T05:22:17;4.75;;;1.45;;
45476;SDS011;31958;51.756;-2.556;2023-03-16T05:24:43;12.32;;;1.70;;
45476;SDS011;31958;51.756;-2.556;2023-03-16T05:27:08;7.05;;;1.60;;
45476;SDS011;31958;51.756;-2.556;2023-03-16T05:29:34;19.35;;;2.10;;
45476;SDS011;31958;51.756;-2.556;2023-03-16T05:31:59;12.13;;;1.90;;
45476;SDS011;31958;51.756;-2.556;2023-03-16T05:34:25;12.15;;;1.58;;
45476;SDS011;31958;51.756;-2.556;2023-03-16T05:36:50;13.38;;;2.33;;
45476;SDS011;31958;51.756;-2.556;2023-03-16T05:39:16;12.35;;;1.60;;
45476;SDS011;31958;51.756;-2.556;2023-03-16T05:41:41;9.45;;;1.70;;
45476;SDS011;31958;51.756;-2.556;2023-03-16T05:44:07;8.63;;;1.98;;
45476;SDS011;31958;51.756;-2.556;2023-03-16T05:46:33;20.75;;;2.60;;
45476;SDS011;31958;51.756;-2.556;2023-03-16T05:48:58;13.00;;;1.98;;
45476;SDS011;31958;51.756;-2.556;2023-03-16T05:51:24;12.95;;;3.30;;
45476;SDS011;31958;51.756;-2.556;2023-03-16T05:53:53;13.63;;;2.25;;
45476;SDS011;31958;51.756;-2.556;2023-03-16T05:56:25;7.80;;;2.00;;
45476;SDS011;31958;51.756;-2.556;2023-03-16T05:58:52;12.55;;;3.10;;
45476;SDS011;31958;51.756;-2.556;2023-03-16T06:01:18;8.68;;;2.50;;
45476;SDS011;31958;51.756;-2.556;2023-03-16T06:03:48;18.02;;;2.15;;
45476;SDS011;31958;51.756;-2.556;2023-03-16T06:06:15;10.05;;;2.00;;
45476;SDS011;31958;51.756;-2.556;2023-03-16T06:08:41;10.15;;;2.17;;
45476;SDS011;31958;51.756;-2.556;2023-03-16T06:11:07;11.73;;;2.90;;
45476;SDS011;31958;51.756;-2.556;2023-03-16T06:13:33;10.88;;;2.10;;
45476;SDS011;31958;51.756;-2.556;2023-03-16T06:15:59;10.65;;;2.10;;
45476;SDS011;31958;51.756;-2.556;2023-03-16T06:18:25;8.23;;;1.70;;
45476;SDS011;31958;51.756;-2.556;2023-03-16T06:20:50;19.08;;;2.47;;
45476;SDS011;31958;51.756;-2.556;2023-03-16T06:23:16;9.40;;;1.60;;
45476;SDS011;31958;51.756;-2.556;2023-03-16T06:25:45;13.85;;;2.47;;
45476;SDS011;31958;51.756;-2.556;2023-03-16T06:28:11;11.23;;;1.70;;
45476;SDS011;31958;51.756;-2.556;2023-03-16T06:30:38;8.10;;;1.73;;
45476;SDS011;31958;51.756;-2.556;2023-03-16T06:33:03;9.65;;;1.85;;
45476;SDS011;31958;51.756;-2.556;2023-03-16T06:35:29;10.98;;;1.95;;
45476;SDS011;31958;51.756;-2.556;2023-03-16T06:37:54;11.15;;;2.25;;
45476;SDS011;31958;51.756;-2.556;2023-03-16T06:40:20;10.20;;;1.75;;
45476;SDS011;31958;51.756;-2.556;2023-03-16T06:42:45;15.10;;;2.25;;
45476;SDS011;31958;51.756;-2.556;2023-03-16T06:45:11;14.77;;;2.38;;
45476;SDS011;31958;51.756;-2.556;2023-03-16T06:47:37;8.60;;;1.45;;
45476;SDS011;31958;51.756;-2.556;2023-03-16T06:50:03;10.38;;;1.67;;
45476;SDS011;31958;51.756;-2.556;2023-03-16T06:52:29;13.05;;;2.28;;
45476;SDS011;31958;51.756;-2.556;2023-03-16T06:54:54;11.98;;;2.15;;
45476;SDS011;31958;51.756;-2.556;2023-03-16T06:57:20;9.65;;;1.98;;
45476;SDS011;31958;51.756;-2.556;2023-03-16T06:59:45;8.32;;;1.75;;
45476;SDS011;31958;51.756;-2.556;2023-03-16T07:02:11;7.65;;;1.55;;
45476;SDS011;31958;51.756;-2.556;2023-03-16T07:04:38;14.52;;;2.78;;
45476;SDS011;31958;51.756;-2.556;2023-03-16T07:07:03;14.90;;;1.85;;
45476;SDS011;31958;51.756;-2.556;2023-03-16T07:09:29;13.00;;;2.03;;
45476;SDS011;31958;51.756;-2.556;2023-03-16T07:11:54;11.75;;;1.92;;
45476;SDS011;31958;51.756;-2.556;2023-03-16T07:14:20;9.05;;;1.63;;
45476;SDS011;31958;51.756;-2.556;2023-03-16T07:16:47;11.93;;;2.40;;
45476;SDS011;31958;51.756;-2.556;2023-03-16T07:19:12;10.75;;;2.13;;
45476;SDS011;31958;51.756;-2.556;2023-03-16T07:21:38;14.70;;;2.10;;
45476;SDS011;31958;51.756;-2.556;2023-03-16T07:24:05;10.93;;;1.63;;
45476;SDS011;31958;51.756;-2.556;2023-03-16T07:26:31;7.47;;;1.85;;
45476;SDS011;31958;51.756;-2.556;2023-03-16T07:28:59;10.82;;;2.03;;
45476;SDS011;31958;51.756;-2.556;2023-03-16T07:31:25;13.68;;;2.08;;
45476;SDS011;31958;51.756;-2.556;2023-03-16T07:33:50;10.82;;;2.10;;
45476;SDS011;31958;51.756;-2.556;2023-03-16T07:36:16;8.93;;;1.60;;
45476;SDS011;31958;51.756;-2.556;2023-03-16T07:38:41;7.10;;;1.77;;
45476;SDS011;31958;51.756;-2.556;2023-03-16T07:41:07;14.55;;;3.15;;
45476;SDS011;31958;51.756;-2.556;2023-03-16T07:43:33;11.45;;;2.00;;
45476;SDS011;31958;51.756;-2.556;2023-03-16T07:45:58;17.50;;;2.22;;
45476;SDS011;31958;51.756;-2.556;2023-03-16T07:48:25;13.68;;;2.38;;
45476;SDS011;31958;51.756;-2.556;2023-03-16T07:50:51;17.02;;;2.30;;
45476;SDS011;31958;51.756;-2.556;2023-03-16T07:53:18;15.00;;;2.28;;
45476;SDS011;31958;51.756;-2.556;2023-03-16T07:55:44;13.63;;;1.92;;
45476;SDS011;31958;51.756;-2.556;2023-03-16T07:58:10;17.25;;;2.20;;
45476;SDS011;31958;51.756;-2.556;2023-03-16T08:00:36;19.20;;;2.78;;
45476;SDS011;31958;51.756;-2.556;2023-03-16T08:03:02;11.73;;;1.92;;
45476;SDS011;31958;51.756;-2.556;2023-03-16T08:05:28;10.90;;;2.40;;
45476;SDS011;31958;51.756;-2.556;2023-03-16T08:07:54;13.82;;;2.15;;
45476;SDS011;31958;51.756;-2.556;2023-03-16T08:10:23;7.38;;;1.75;;
45476;SDS011;31958;51.756;-2.556;2023-03-16T08:12:49;13.35;;;1.80;;
45476;SDS011;31958;51.756;-2.556;2023-03-16T08:15:15;7.32;;;1.80;;
45476;SDS011;31958;51.756;-2.556;2023-03-16T08:17:41;10.27;;;2.42;;
45476;SDS011;31958;51.756;-2.556;2023-03-16T08:20:07;7.93;;;1.75;;
45476;SDS011;31958;51.756;-2.556;2023-03-16T08:22:34;10.68;;;2.20;;
45476;SDS011;31958;51.756;-2.556;2023-03-16T08:25:01;20.05;;;2.05;;
45476;SDS011;31958;51.756;-2.556;2023-03-16T08:27:27;9.93;;;2.13;;
45476;SDS011;31958;51.756;-2.556;2023-03-16T08:29:53;11.32;;;2.70;;
45476;SDS011;31958;51.756;-2.556;2023-03-16T08:32:19;12.13;;;2.08;;
45476;SDS011;31958;51.756;-2.556;2023-03-16T08:34:44;6.47;;;1.83;;
45476;SDS011;31958;51.756;-2.556;2023-03-16T08:37:11;8.57;;;1.80;;
45476;SDS011;31958;51.756;-2.556;2023-03-16T08:39:41;19.85;;;2.58;;
45476;SDS011;31958;51.756;-2.556;2023-03-16T08:42:07;6.25;;;1.50;;
45476;SDS011;31958;51.756;-2.556;2023-03-16T08:44:39;7.82;;;1.73;;
45476;SDS011;31958;51.756;-2.556;2023-03-16T08:47:05;12.05;;;2.60;;
45476;SDS011;31958;51.756;-2.556;2023-03-16T08:49:30;9.77;;;2.00;;
45476;SDS011;31958;51.756;-2.556;2023-03-16T08:51:56;12.07;;;2.13;;
45476;SDS011;31958;51.756;-2.556;2023-03-16T08:54:21;7.28;;;2.03;;
45476;SDS011;31958;51.756;-2.556;2023-03-16T08:56:47;12.85;;;2.40;;
45476;SDS011;31958;51.756;-2.556;2023-03-16T08:59:13;14.52;;;2.25;;
45476;SDS011;31958;51.756;-2.556;2023-03-16T09:01:38;12.52;;;2.63;;
45476;SDS011;31958;51.756;-2.556;2023-03-16T09:04:04;11.25;;;2.05;;
45476;SDS011;31958;51.756;-2.556;2023-03-16T09:06:29;6.43;;;1.52;;
45476;SDS011;31958;51.756;-2.556;2023-03-16T09:08:55;13.10;;;1.90;;
45476;SDS011;31958;51.756;-2.556;2023-03-16T09:11:21;11.73;;;2.03;;
45476;SDS011;31958;51.756;-2.556;2023-03-16T09:13:47;7.07;;;1.50;;
45476;SDS011;31958;51.756;-2.556;2023-03-16T09:16:13;9.80;;;1.90;;
45476;SDS011;31958;51.756;-2.556;2023-03-16T09:18:40;8.10;;;2.08;;
45476;SDS011;31958;51.756;-2.556;2023-03-16T09:21:06;7.03;;;1.88;;
45476;SDS011;31958;51.756;-2.556;2023-03-16T09:23:34;6.50;;;2.03;;
45476;SDS011;31958;51.756;-2.556;2023-03-16T09:26:02;9.75;;;1.90;;
45476;SDS011;31958;51.756;-2.556;2023-03-16T09:28:30;10.95;;;2.03;;
45476;SDS011;31958;51.756;-2.556;2023-03-16T09:30:56;14.10;;;1.90;;
45476;SDS011;31958;51.756;-2.556;2023-03-16T09:33:22;10.82;;;2.05;;
45476;SDS011;31958;51.756;-2.556;2023-03-16T09:35:49;7.72;;;1.65;;
45476;SDS011;31958;51.756;-2.556;2023-03-16T09:38:16;11.70;;;1.70;;
45476;SDS011;31958;51.756;-2.556;2023-03-16T09:40:42;9.75;;;1.88;;
45476;SDS011;31958;51.756;-2.556;2023-03-16T09:45:48;8.30;;;2.13;;
45476;SDS011;31958;51.756;-2.556;2023-03-16T09:48:25;10.27;;;2.28;;
45476;SDS011;31958;51.756;-2.556;2023-03-16T09:50:53;11.40;;;2.00;;
45476;SDS011;31958;51.756;-2.556;2023-03-16T09:53:21;13.80;;;2.35;;
45476;SDS011;31958;51.756;-2.556;2023-03-16T09:55:50;5.20;;;1.63;;
45476;SDS011;31958;51.756;-2.556;2023-03-16T09:58:21;9.05;;;1.70;;
45476;SDS011;31958;51.756;-2.556;2023-03-16T10:06:47;11.15;;;1.58;;
45476;SDS011;31958;51.756;-2.556;2023-03-16T10:09:24;7.10;;;1.88;;
45476;SDS011;31958;51.756;-2.556;2023-03-16T10:11:55;7.35;;;2.75;;
45476;SDS011;31958;51.756;-2.556;2023-03-16T10:19:44;15.73;;;3.90;;
45476;SDS011;31958;51.756;-2.556;2023-03-16T10:22:25;24.58;;;5.63;;
45476;SDS011;31958;51.756;-2.556;2023-03-16T10:24:55;8.68;;;2.47;;
45476;SDS011;31958;51.756;-2.556;2023-03-16T10:27:34;6.57;;;1.83;;
45476;SDS011;31958;51.756;-2.556;2023-03-16T10:30:01;12.20;;;2.30;;
45476;SDS011;31958;51.756;-2.556;2023-03-16T10:32:31;9.32;;;3.88;;
45476;SDS011;31958;51.756;-2.556;2023-03-16T10:35:10;20.00;;;3.00;;
45476;SDS011;31958;51.756;-2.556;2023-03-16T10:37:58;13.93;;;2.30;;
45476;SDS011;31958;51.756;-2.556;2023-03-16T10:40:24;6.53;;;2.60;;
45476;SDS011;31958;51.756;-2.556;2023-03-16T10:42:50;8.18;;;1.83;;
45476;SDS011;31958;51.756;-2.556;2023-03-16T10:45:22;10.82;;;2.15;;
45476;SDS011;31958;51.756;-2.556;2023-03-16T10:47:49;10.77;;;2.45;;
45476;SDS011;31958;51.756;-2.556;2023-03-16T10:50:15;10.20;;;3.30;;
45476;SDS011;31958;51.756;-2.556;2023-03-16T10:52:44;13.27;;;4.18;;
45476;SDS011;31958;51.756;-2.556;2023-03-16T10:57:56;14.27;;;4.13;;
45476;SDS011;31958;51.756;-2.556;2023-03-16T11:00:27;6.85;;;2.13;;
45476;SDS011;31958;51.756;-2.556;2023-03-16T11:02:55;7.50;;;2.90;;
45476;SDS011;31958;51.756;-2.556;2023-03-16T11:05:30;6.85;;;2.33;;
45476;SDS011;31958;51.756;-2.556;2023-03-16T11:10:37;9.85;;;2.22;;
45476;SDS011;31958;51.756;-2.556;2023-03-16T11:15:41;12.85;;;2.30;;
45476;SDS011;31958;51.756;-2.556;2023-03-16T11:18:34;13.25;;;2.92;;
45476;SDS011;31958;51.756;-2.556;2023-03-16T11:20:59;10.40;;;2.28;;
45476;SDS011;31958;51.756;-2.556;2023-03-16T11:23:31;8.80;;;2.13;;
45476;SDS011;31958;51.756;-2.556;2023-03-16T11:25:59;8.25;;;1.63;;
45476;SDS011;31958;51.756;-2.556;2023-03-16T11:28:35;10.40;;;2.03;;
45476;SDS011;31958;51.756;-2.556;2023-03-16T11:33:28;9.85;;;1.98;;
45476;SDS011;31958;51.756;-2.556;2023-03-16T11:36:16;11.07;;;2.13;;
45476;SDS011;31958;51.756;-2.556;2023-03-16T11:41:12;6.97;;;2.20;;
45476;SDS011;31958;51.756;-2.556;2023-03-16T11:44:20;12.85;;;2.78;;
45476;SDS011;31958;51.756;-2.556;2023-03-16T11:47:03;12.43;;;2.63;;
45476;SDS011;31958;51.756;-2.556;2023-03-16T11:49:40;10.27;;;3.30;;
45476;SDS011;31958;51.756;-2.556;2023-03-16T11:52:19;11.50;;;2.58;;
45476;SDS011;31958;51.756;-2.556;2023-03-16T12:06:01;12.73;;;2.08;;
45476;SDS011;31958;51.756;-2.556;2023-03-16T12:16:58;6.50;;;1.35;;
45476;SDS011;31958;51.756;-2.556;2023-03-16T12:24:56;8.38;;;2.08;;
45476;SDS011;31958;51.756;-2.556;2023-03-16T12:30:19;13.00;;;2.10;;
45476;SDS011;31958;51.756;-2.556;2023-03-16T12:32:56;13.07;;;2.42;;
45476;SDS011;31958;51.756;-2.556;2023-03-16T12:35:28;11.52;;;1.88;;
45476;SDS011;31958;51.756;-2.556;2023-03-16T12:41:06;9.13;;;1.73;;
45476;SDS011;31958;51.756;-2.556;2023-03-16T12:48:37;14.32;;;2.65;;
45476;SDS011;31958;51.756;-2.556;2023-03-16T12:51:06;9.40;;;1.85;;
45476;SDS011;31958;51.756;-2.556;2023-03-16T12:56:06;9.52;;;2.08;;
45476;SDS011;31958;51.756;-2.556;2023-03-16T12:58:34;11.35;;;2.03;;
45476;SDS011;31958;51.756;-2.556;2023-03-16T13:01:00;10.55;;;2.03;;
45476;SDS011;31958;51.756;-2.556;2023-03-16T13:03:27;8.20;;;2.45;;
45476;SDS011;31958;51.756;-2.556;2023-03-16T13:05:57;14.55;;;2.30;;
45476;SDS011;31958;51.756;-2.556;2023-03-16T13:08:23;14.43;;;2.40;;
45476;SDS011;31958;51.756;-2.556;2023-03-16T13:10:59;6.22;;;2.03;;
45476;SDS011;31958;51.756;-2.556;2023-03-16T13:13:28;7.28;;;2.35;;
45476;SDS011;31958;51.756;-2.556;2023-03-16T13:16:07;12.10;;;2.03;;
45476;SDS011;31958;51.756;-2.556;2023-03-16T13:18:39;9.55;;;2.20;;
45476;SDS011;31958;51.756;-2.556;2023-03-16T13:21:16;11.88;;;2.45;;
45476;SDS011;31958;51.756;-2.556;2023-03-16T13:26:25;8.27;;;2.55;;
45476;SDS011;31958;51.756;-2.556;2023-03-16T13:29:02;9.50;;;2.50;;
45476;SDS011;31958;51.756;-2.556;2023-03-16T13:31:36;14.52;;;2.70;;
45476;SDS011;31958;51.756;-2.556;2023-03-16T13:34:04;12.70;;;3.15;;
45476;SDS011;31958;51.756;-2.556;2023-03-16T13:36:30;7.78;;;1.65;;
45476;SDS011;31958;51.756;-2.556;2023-03-16T13:39:30;9.38;;;2.05;;
45476;SDS011;31958;51.756;-2.556;2023-03-16T13:44:42;10.60;;;2.72;;
45476;SDS011;31958;51.756;-2.556;2023-03-16T13:47:15;11.82;;;2.28;;
45476;SDS011;31958;51.756;-2.556;2023-03-16T13:49:49;9.43;;;2.35;;
45476;SDS011;31958;51.756;-2.556;2023-03-16T13:52:26;9.20;;;3.25;;
45476;SDS011;31958;51.756;-2.556;2023-03-16T13:54:53;10.10;;;2.60;;
45476;SDS011;31958;51.756;-2.556;2023-03-16T13:57:21;9.52;;;2.45;;
45476;SDS011;31958;51.756;-2.556;2023-03-16T13:59:49;12.80;;;3.05;;
45476;SDS011;31958;51.756;-2.556;2023-03-16T14:02:18;10.98;;;3.30;;
45476;SDS011;31958;51.756;-2.556;2023-03-16T14:04:44;10.25;;;3.13;;
45476;SDS011;31958;51.756;-2.556;2023-03-16T14:07:15;9.18;;;2.67;;
45476;SDS011;31958;51.756;-2.556;2023-03-16T14:09:42;12.27;;;3.28;;
45476;SDS011;31958;51.756;-2.556;2023-03-16T14:12:12;10.48;;;2.22;;
45476;SDS011;31958;51.756;-2.556;2023-03-16T14:14:39;13.07;;;2.65;;
45476;SDS011;31958;51.756;-2.556;2023-03-16T14:17:12;6.95;;;2.75;;
45476;SDS011;31958;51.756;-2.556;2023-03-16T14:22:12;8.60;;;2.15;;
45476;SDS011;31958;51.756;-2.556;2023-03-16T14:24:39;12.82;;;3.17;;
45476;SDS011;31958;51.756;-2.556;2023-03-16T14:27:18;10.55;;;3.33;;
45476;SDS011;31958;51.756;-2.556;2023-03-16T14:29:49;9.32;;;2.83;;
45476;SDS011;31958;51.756;-2.556;2023-03-16T14:32:19;12.05;;;2.75;;
45476;SDS011;31958;51.756;-2.556;2023-03-16T14:34:50;8.75;;;2.40;;
45476;SDS011;31958;51.756;-2.556;2023-03-16T14:37:16;12.98;;;2.20;;
45476;SDS011;31958;51.756;-2.556;2023-03-16T14:39:43;8.43;;;2.10;;
45476;SDS011;31958;51.756;-2.556;2023-03-16T14:42:13;9.68;;;2.55;;
45476;SDS011;31958;51.756;-2.556;2023-03-16T14:44:51;6.28;;;1.80;;
45476;SDS011;31958;51.756;-2.556;2023-03-16T14:47:37;14.07;;;2.42;;
45476;SDS011;31958;51.756;-2.556;2023-03-16T14:50:06;10.57;;;2.35;;
45476;SDS011;31958;51.756;-2.556;2023-03-16T14:52:33;5.70;;;1.95;;
45476;SDS011;31958;51.756;-2.556;2023-03-16T14:54:59;12.40;;;2.38;;
45476;SDS011;31958;51.756;-2.556;2023-03-16T14:57:26;6.45;;;2.70;;
45476;SDS011;31958;51.756;-2.556;2023-03-16T14:59:51;3.75;;;1.80;;
45476;SDS011;31958;51.756;-2.556;2023-03-16T15:04:48;15.02;;;2.70;;
45476;SDS011;31958;51.756;-2.556;2023-03-16T15:07:23;9.05;;;2.50;;
45476;SDS011;31958;51.756;-2.556;2023-03-16T15:10:02;8.57;;;2.50;;
45476;SDS011;31958;51.756;-2.556;2023-03-16T15:12:31;7.90;;;2.10;;
45476;SDS011;31958;51.756;-2.556;2023-03-16T15:14:58;9.90;;;2.42;;
45476;SDS011;31958;51.756;-2.556;2023-03-16T15:17:40;7.97;;;2.20;;
45476;SDS011;31958;51.756;-2.556;2023-03-16T15:20:12;8.05;;;2.30;;
45476;SDS011;31958;51.756;-2.556;2023-03-16T15:22:42;14.13;;;2.60;;
45476;SDS011;31958;51.756;-2.556;2023-03-16T15:27:44;8.75;;;3.22;;
45476;SDS011;31958;51.756;-2.556;2023-03-16T15:30:18;8.50;;;3.00;;
45476;SDS011;31958;51.756;-2.556;2023-03-16T15:32:44;10.57;;;2.50;;
45476;SDS011;31958;51.756;-2.556;2023-03-16T15:35:10;14.20;;;2.85;;
45476;SDS011;31958;51.756;-2.556;2023-03-16T15:37:35;12.05;;;3.45;;
45476;SDS011;31958;51.756;-2.556;2023-03-16T15:40:01;13.00;;;3.08;;
45476;SDS011;31958;51.756;-2.556;2023-03-16T15:42:34;8.52;;;2.50;;
45476;SDS011;31958;51.756;-2.556;2023-03-16T15:45:00;8.52;;;2.90;;
45476;SDS011;31958;51.756;-2.556;2023-03-16T15:47:25;19.00;;;3.80;;
45476;SDS011;31958;51.756;-2.556;2023-03-16T15:49:51;8.23;;;2.63;;
45476;SDS011;31958;51.756;-2.556;2023-03-16T15:52:21;9.77;;;3.53;;
45476;SDS011;31958;51.756;-2.556;2023-03-16T15:54:51;4.93;;;2.50;;
45476;SDS011;31958;51.756;-2.556;2023-03-16T15:57:16;13.43;;;3.30;;
45476;SDS011;31958;51.756;-2.556;2023-03-16T15:59:43;16.40;;;4.18;;
45476;SDS011;31958;51.756;-2.556;2023-03-16T16:05:04;15.30;;;4.22;;